Time;durP1;ratioP1;P1;durP2;ratioP2;P2;SDS_P1;SDS_P2;PMS_P1;PMS_P2;Temp;Humidity;BMP_temperature;BMP_pressure;BME280_temperature;BME280_humidity;BME280_pressure;Samples;Min_cycle;Max_cycle;Signal;HPM_P1;HPM_P2
2022/04/28 00:00:43;;;;;;;17.82;7.75;;;;;;;7.73;65.28;100133.36;1760048;81;21050;-74
2022/04/28 00:03:11;;;;;;;14.20;6.83;;;;;;;7.71;65.21;100129.86;1759773;81;21070;-75
2022/04/28 00:05:39;;;;;;;12.30;6.78;;;;;;;7.66;65.16;100136.92;1759968;81;21959;-74
2022/04/28 00:08:07;;;;;;;11.53;5.90;;;;;;;7.65;65.18;100135.20;1759814;81;22018;-75
2022/04/28 00:10:36;;;;;;;10.23;5.75;;;;;;;7.65;64.70;100136.52;1759669;81;21010;-75
2022/04/28 00:13:05;;;;;;;9.80;5.37;;;;;;;7.63;64.30;100135.22;1759597;81;21073;-74
2022/04/28 00:15:33;;;;;;;12.35;4.83;;;;;;;7.61;63.69;100134.34;1759985;81;21105;-75
2022/04/28 00:17:59;;;;;;;11.18;4.47;;;;;;;7.60;63.91;100135.25;1759959;81;21098;-75
2022/04/28 00:20:26;;;;;;;6.33;4.10;;;;;;;7.62;63.84;100135.23;1760152;81;21038;-74
2022/04/28 00:22:53;;;;;;;6.75;4.10;;;;;;;7.63;63.85;100137.84;1759880;81;21093;-74
2022/04/28 00:25:22;;;;;;;6.37;3.40;;;;;;;7.65;63.42;100131.70;1759859;81;20998;-75
2022/04/28 00:27:50;;;;;;;5.50;3.10;;;;;;;7.67;63.75;100133.42;1759753;81;21109;-75
2022/04/28 00:30:17;;;;;;;9.68;2.80;;;;;;;7.68;62.74;100126.42;1758219;80;21571;-74
2022/04/28 00:32:44;;;;;;;5.90;3.10;;;;;;;7.69;62.78;100128.17;1757148;81;22107;-75
2022/04/28 00:35:12;;;;;;;3.30;2.80;;;;;;;7.70;62.86;100126.84;1756748;81;21000;-75
2022/04/28 00:37:39;;;;;;;4.50;2.70;;;;;;;7.71;62.68;100135.11;1756818;81;21567;-74
2022/04/28 00:40:06;;;;;;;4.08;2.65;;;;;;;7.72;62.67;100135.54;1757311;81;21165;-75
2022/04/28 00:42:33;;;;;;;2.58;2.37;;;;;;;7.71;62.10;100135.11;1757047;81;21132;-75
2022/04/28 00:44:59;;;;;;;3.65;2.60;;;;;;;7.71;61.87;100140.34;1757115;81;21072;-75
2022/04/28 00:50:38;;;;;;;2.62;2.35;;;;;;;7.70;62.14;100136.43;1765163;80;20983;-75
2022/04/28 00:52:33;;;;;;;5.65;2.75;;;;;;;7.63;62.50;100139.57;1740954;80;21014;-75
2022/04/28 00:55:02;;;;;;;3.75;2.92;;;;;;;7.61;61.97;100141.34;1788031;80;21022;-75
2022/04/28 00:57:31;;;;;;;5.00;3.15;;;;;;;7.57;61.83;100137.05;1788483;80;21099;-75
2022/04/28 00:59:57;;;;;;;5.08;3.98;;;;;;;7.54;61.68;100138.39;1787919;80;21557;-76
2022/04/28 01:02:24;;;;;;;3.62;3.27;;;;;;;7.50;61.69;100136.67;1788103;80;21085;-75
2022/04/28 01:04:51;;;;;;;4.10;3.20;;;;;;;7.47;61.90;100135.43;1788343;80;21120;-73
2022/04/28 01:07:18;;;;;;;3.65;3.35;;;;;;;7.42;62.02;100138.95;1788072;80;21120;-75
2022/04/28 01:09:46;;;;;;;6.05;3.60;;;;;;;7.37;62.14;100141.21;1788083;80;21748;-75
2022/04/28 01:12:15;;;;;;;5.87;3.50;;;;;;;7.32;62.29;100141.26;1787851;80;21066;-75
2022/04/28 01:14:45;;;;;;;3.87;2.87;;;;;;;7.28;62.67;100143.50;1788289;80;21066;-75
2022/04/28 01:17:13;;;;;;;4.50;3.05;;;;;;;7.22;63.09;100144.41;1788246;80;21101;-75
2022/04/28 01:19:42;;;;;;;4.85;3.10;;;;;;;7.17;63.52;100142.28;1788068;80;21034;-74
2022/04/28 01:22:08;;;;;;;5.15;3.12;;;;;;;7.12;63.74;100136.69;1787863;80;21108;-74
2022/04/28 01:24:37;;;;;;;4.28;2.72;;;;;;;7.07;64.16;100136.27;1788210;80;21726;-75
2022/04/28 01:27:05;;;;;;;3.45;3.15;;;;;;;7.02;64.51;100140.69;1759437;80;21588;-75
2022/04/28 01:29:33;;;;;;;5.08;2.87;;;;;;;6.97;64.76;100144.25;1788074;80;21113;-75
2022/04/28 01:32:01;;;;;;;4.03;2.87;;;;;;;6.92;65.27;100146.05;1788428;80;21046;-75
2022/04/28 01:34:29;;;;;;;4.97;2.95;;;;;;;6.86;65.55;100139.13;1764592;80;21101;-75
2022/04/28 01:36:56;;;;;;;3.42;2.98;;;;;;;6.83;66.11;100144.39;1788328;80;21556;-75
2022/04/28 01:39:24;;;;;;;3.70;2.92;;;;;;;6.80;66.19;100143.09;1788807;80;21033;-75
2022/04/28 01:41:51;;;;;;;3.00;2.80;;;;;;;6.78;66.45;100140.95;1788455;80;21049;-75
2022/04/28 01:44:18;;;;;;;5.47;2.98;;;;;;;6.74;66.33;100138.80;1789008;80;21470;-74
2022/04/28 01:46:46;;;;;;;3.42;2.65;;;;;;;6.70;66.75;100140.55;1788840;80;22769;-74
2022/04/28 01:49:30;;;;;;;5.53;2.83;;;;;;;6.67;67.03;100141.91;1788743;80;21062;-75
2022/04/28 01:54:59;;;;;;;5.35;2.30;;;;;;;6.59;66.84;100136.30;1785990;80;21073;-75
2022/04/28 01:57:29;;;;;;;3.87;2.90;;;;;;;6.55;67.21;100138.07;1786049;80;21057;-75
2022/04/28 02:00:01;;;;;;;5.83;2.80;;;;;;;6.53;67.20;100138.53;1785721;80;21789;-74
2022/04/28 02:02:48;;;;;;;3.00;2.70;;;;;;;6.50;66.90;100134.63;1788063;80;21062;-75
2022/04/28 02:05:16;;;;;;;2.87;2.62;;;;;;;6.48;66.52;100137.70;1788478;80;21038;-75
2022/04/28 02:07:44;;;;;;;5.58;2.65;;;;;;;6.47;66.50;100134.65;1788660;80;21128;-75
2022/04/28 02:10:11;;;;;;;4.62;2.65;;;;;;;6.46;66.92;100133.79;1788743;80;21154;-75
2022/04/28 02:12:38;;;;;;;5.22;2.83;;;;;;;6.46;67.50;100132.93;1788766;80;21166;-75
2022/04/28 02:15:16;;;;;;;5.37;3.10;;;;;;;6.45;67.39;100137.27;1788885;80;20994;-75
2022/04/28 02:18:04;;;;;;;3.27;2.58;;;;;;;6.46;68.06;100136.86;1787556;80;21034;-75
2022/04/28 02:20:31;;;;;;;3.22;2.80;;;;;;;6.47;68.49;100132.92;1788985;80;21129;-76
2022/04/28 02:22:58;;;;;;;3.75;3.00;;;;;;;6.50;69.04;100135.94;1788561;80;21117;-75
2022/04/28 02:25:27;;;;;;;4.30;3.05;;;;;;;6.51;69.41;100133.77;1788952;80;21583;-75
2022/04/28 02:27:55;;;;;;;4.08;2.80;;;;;;;6.51;69.13;100133.77;1788576;80;21489;-74
2022/04/28 02:30:22;;;;;;;8.28;4.03;;;;;;;6.52;69.40;100132.86;1788804;80;20994;-74
2022/04/28 02:35:39;;;;;;;9.95;5.97;;;;;;;6.54;69.33;100138.08;1786537;80;21548;-75
2022/04/28 02:38:07;;;;;;;8.95;6.15;;;;;;;6.55;69.68;100136.77;1788394;80;22116;-75
2022/04/28 02:40:33;;;;;;;12.20;7.35;;;;;;;6.56;70.03;100138.52;1778237;80;21038;-75
2022/04/28 02:43:02;;;;;;;17.90;8.20;;;;;;;6.57;70.06;100138.92;1753043;81;21615;-74
2022/04/28 02:45:30;;;;;;;22.52;10.32;;;;;;;6.59;69.79;100142.41;1752731;81;20998;-75
2022/04/28 02:47:59;;;;;;;20.85;11.28;;;;;;;6.62;69.72;100139.78;1752685;81;21108;-74
2022/04/28 02:50:28;;;;;;;15.45;8.88;;;;;;;6.62;69.23;100143.70;1752734;81;21049;-74
2022/04/28 02:52:55;;;;;;;12.90;8.23;;;;;;;6.62;69.04;100143.70;1752527;81;21069;-75
2022/04/28 02:55:21;;;;;;;13.60;8.35;;;;;;;6.64;69.57;100142.34;1779296;80;21021;-75
2022/04/28 02:57:48;;;;;;;11.18;7.12;;;;;;;6.65;69.75;100138.42;1788079;80;21532;-75
2022/04/28 03:00:17;;;;;;;14.98;8.10;;;;;;;6.66;70.21;100146.70;1788250;80;21160;-75
2022/04/28 03:02:47;;;;;;;11.60;6.60;;;;;;;6.67;70.30;100147.56;1776934;80;22810;-73
2022/04/28 03:05:13;;;;;;;17.45;6.60;;;;;;;6.67;70.25;100145.84;1788059;80;21065;-76
2022/04/28 03:10:52;;;;;;;7.55;5.28;;;;;;;6.72;69.24;100147.53;1788286;80;27188;-75
2022/04/28 03:13:23;;;;;;;6.62;4.37;;;;;;;6.70;68.68;100153.63;1787804;80;21116;-74
2022/04/28 03:15:51;;;;;;;4.05;3.62;;;;;;;6.73;68.37;100154.50;1788068;80;21391;-74
2022/04/28 03:18:20;;;;;;;3.98;3.15;;;;;;;6.75;68.16;100154.05;1760296;80;21571;-75
2022/04/28 03:20:47;;;;;;;6.67;3.65;;;;;;;6.76;67.93;100158.38;1788089;80;21104;-73
2022/04/28 03:23:15;;;;;;;5.75;3.98;;;;;;;6.77;68.03;100158.81;1788086;80;21105;-76
2022/04/28 03:25:43;;;;;;;5.30;3.62;;;;;;;6.77;68.16;100165.35;1788405;80;21069;-74
2022/04/28 03:28:10;;;;;;;6.35;3.40;;;;;;;6.78;68.24;100165.80;1787941;80;21679;-75
2022/04/28 03:30:37;;;;;;;4.70;3.47;;;;;;;6.81;68.76;100165.77;1788854;80;20998;-75
2022/04/28 03:33:06;;;;;;;5.67;3.92;;;;;;;6.84;69.15;100169.64;1789642;80;21102;-74
2022/04/28 03:35:33;;;;;;;6.55;3.83;;;;;;;6.87;69.57;100178.77;1791166;80;21057;-75
2022/04/28 03:38:01;;;;;;;7.60;3.90;;;;;;;6.87;69.64;100173.09;1791169;80;21596;-74
2022/04/28 03:40:30;;;;;;;6.08;3.70;;;;;;;6.87;70.01;100163.94;1791110;80;21129;-75
2022/04/28 03:42:57;;;;;;;5.67;3.45;;;;;;;6.90;70.24;100169.59;1790905;80;21089;-74
2022/04/28 03:45:28;;;;;;;3.15;2.85;;;;;;;6.91;70.07;100164.80;1791037;80;21565;-75
2022/04/28 03:47:53;;;;;;;6.28;3.20;;;;;;;6.93;69.42;100173.95;1790885;80;21046;-75
2022/04/28 03:50:22;;;;;;;4.70;3.08;;;;;;;6.96;69.51;100181.32;1791377;80;21049;-74
2022/04/28 03:52:48;;;;;;;3.55;3.10;;;;;;;7.01;69.70;100180.84;1791390;80;21091;-74
2022/04/28 03:55:14;;;;;;;3.30;3.00;;;;;;;7.09;69.88;100181.20;1791067;80;21011;-75
2022/04/28 03:57:42;;;;;;;3.50;2.67;;;;;;;7.18;70.13;100177.20;1791293;80;21101;-75
2022/04/28 04:00:13;;;;;;;4.40;2.72;;;;;;;7.25;70.34;100174.94;1791303;80;21588;-75
2022/04/28 04:02:39;;;;;;;5.35;2.40;;;;;;;7.32;69.75;100187.06;1791085;80;21054;-75
2022/04/28 04:05:07;;;;;;;2.42;2.30;;;;;;;7.41;69.65;100189.60;1791056;80;21127;-74
2022/04/28 04:07:38;;;;;;;2.47;1.90;;;;;;;7.51;69.33;100190.80;1791171;80;21089;-75
2022/04/28 04:10:10;;;;;;;2.37;2.17;;;;;;;7.72;68.06;100201.48;1791488;80;21002;-75
2022/04/28 04:12:40;;;;;;;2.35;1.90;;;;;;;7.72;68.06;100201.48;1791339;80;21939;-75
2022/04/28 04:15:18;;;;;;;5.22;2.15;;;;;;;7.85;67.56;100204.80;1791029;80;21108;-75
2022/04/28 04:17:54;;;;;;;1.82;1.70;;;;;;;7.96;67.25;100216.02;1791265;80;21108;-75
2022/04/28 04:20:22;;;;;;;2.15;1.57;;;;;;;8.05;66.83;100218.50;1791347;80;21533;-75
2022/04/28 04:22:52;;;;;;;7.78;1.95;;;;;;;8.16;66.45;100224.48;1791221;80;21084;-75
2022/04/28 04:25:19;;;;;;;2.10;1.90;;;;;;;8.28;65.47;100226.06;1767231;80;21006;-75
2022/04/28 04:27:47;;;;;;;1.87;1.77;;;;;;;8.41;65.15;100230.70;1791294;80;21434;-75
2022/04/28 04:33:09;;;;;;;3.77;2.12;;;;;;;8.68;64.83;100225.52;1759798;80;21081;-75
2022/04/28 04:35:37;;;;;;;3.85;2.15;;;;;;;8.78;63.77;100231.50;1781001;80;21068;-74
2022/04/28 04:38:04;;;;;;;3.70;1.70;;;;;;;8.87;63.41;100231.33;1756811;81;21128;-75
2022/04/28 04:40:32;;;;;;;7.08;2.10;;;;;;;8.98;63.55;100231.60;1756783;81;21560;-74
2022/04/28 04:43:02;;;;;;;2.05;1.95;;;;;;;9.07;63.37;100227.53;1756880;81;21133;-75
2022/04/28 04:45:29;;;;;;;2.55;1.98;;;;;;;9.20;62.79;100225.11;1756912;81;21533;-74
2022/04/28 04:48:13;;;;;;;2.52;2.33;;;;;;;9.37;61.85;100220.86;1756717;81;21007;-74
2022/04/28 04:50:41;;;;;;;3.58;1.65;;;;;;;9.53;61.17;100215.32;1756016;81;21109;-75
2022/04/28 04:53:10;;;;;;;2.52;2.00;;;;;;;9.66;60.20;100221.61;1755589;81;21128;-75
2022/04/28 04:55:38;;;;;;;3.62;2.08;;;;;;;9.78;59.37;100220.50;1757002;81;21568;-75
2022/04/28 04:58:07;;;;;;;2.95;1.92;;;;;;;9.90;58.93;100221.16;1761038;80;21010;-75
2022/04/28 05:00:36;;;;;;;2.00;1.90;;;;;;;10.02;58.50;100227.04;1726997;83;21654;-75
2022/04/28 05:03:21;;;;;;;2.12;1.87;;;;;;;10.14;58.34;100223.75;1756963;81;21564;-74
2022/04/28 05:05:57;;;;;;;2.10;1.90;;;;;;;10.29;58.57;100239.19;1725518;83;21557;-75
2022/04/28 05:08:36;;;;;;;2.52;1.90;;;;;;;10.43;58.37;100236.28;1756871;81;21533;-75
2022/04/28 05:11:06;;;;;;;2.37;2.00;;;;;;;10.58;57.49;100242.96;1756922;81;21140;-75
2022/04/28 05:13:34;;;;;;;5.53;1.72;;;;;;;10.70;57.44;100242.66;1725484;83;21074;-75
2022/04/28 05:16:03;;;;;;;2.35;1.98;;;;;;;10.79;55.67;100242.89;1725503;82;21059;-74
2022/04/28 05:18:35;;;;;;;7.42;2.10;;;;;;;10.86;54.62;100242.30;1755617;81;21137;-74
2022/04/28 05:21:08;;;;;;;2.17;1.70;;;;;;;10.92;54.66;100243.47;1753684;81;21077;-75
2022/04/28 05:23:52;;;;;;;4.58;2.10;;;;;;;10.95;54.10;100249.98;1726056;83;21229;-75
2022/04/28 05:26:25;;;;;;;2.27;2.08;;;;;;;11.00;53.92;100252.52;1683183;82;21062;-76
2022/04/28 05:29:04;;;;;;;4.40;2.50;;;;;;;11.02;53.95;100252.88;1755978;81;21624;-75
2022/04/28 05:31:35;;;;;;;4.15;2.15;;;;;;;11.07;53.93;100254.94;1756517;81;21108;-75
2022/04/28 05:34:09;;;;;;;4.65;2.50;;;;;;;11.10;54.57;100249.60;1707212;82;21786;-74
2022/04/28 05:36:39;;;;;;;4.17;2.25;;;;;;;11.11;54.20;100245.19;1759503;81;21228;-75
2022/04/28 05:39:07;;;;;;;2.83;2.50;;;;;;;11.12;54.46;100245.16;1759772;81;22085;-75
2022/04/28 05:41:34;;;;;;;4.67;2.20;;;;;;;11.16;54.19;100248.56;1724200;83;21495;-74
2022/04/28 05:46:48;;;;;;;3.80;2.02;;;;;;;11.20;53.85;100245.44;1760169;81;20974;-75
2022/04/28 05:49:15;;;;;;;2.87;1.95;;;;;;;11.21;53.82;100248.46;1759673;81;21041;-75
2022/04/28 05:51:43;;;;;;;1.95;1.85;;;;;;;11.21;54.23;100249.31;1724116;82;20992;-74
2022/04/28 05:54:14;;;;;;;6.35;1.67;;;;;;;11.24;54.00;100241.80;1711697;83;22201;-74
2022/04/28 05:56:44;;;;;;;1.95;1.57;;;;;;;11.24;52.95;100252.34;1724187;83;21023;-75
2022/04/28 05:59:14;;;;;;;1.62;1.52;;;;;;;11.24;52.17;100253.66;1723942;83;21224;-75
2022/04/28 06:01:49;;;;;;;2.30;1.57;;;;;;;11.24;52.06;100253.19;1760133;81;21049;-75
2022/04/28 06:04:17;;;;;;;5.28;1.57;;;;;;;11.24;52.28;100251.88;1759793;81;21077;-75
2022/04/28 06:06:47;;;;;;;2.60;1.57;;;;;;;11.27;52.18;100259.70;1724386;83;21048;-74
2022/04/28 06:09:19;;;;;;;3.77;1.65;;;;;;;11.33;52.22;100259.98;1759728;81;21069;-75
2022/04/28 06:11:47;;;;;;;4.12;1.95;;;;;;;11.43;51.84;100268.09;1760393;81;21186;-74
2022/04/28 06:14:13;;;;;;;6.37;1.72;;;;;;;11.56;52.36;100267.77;1724086;83;21055;-75
2022/04/28 06:16:43;;;;;;;3.62;1.98;;;;;;;11.69;52.53;100264.75;1716921;83;21039;-74
2022/04/28 06:19:21;;;;;;;4.75;1.60;;;;;;;11.87;52.54;100267.80;1759863;81;21106;-75
2022/04/28 06:22:06;;;;;;;3.60;1.50;;;;;;;12.01;51.61;100268.76;1759930;81;21148;-75
2022/04/28 06:24:38;;;;;;;1.52;1.35;;;;;;;12.12;49.40;100266.69;1730385;82;20990;-75
2022/04/28 06:27:08;;;;;;;4.45;1.32;;;;;;;12.22;47.68;100261.55;1760121;81;20955;-75
2022/04/28 06:29:36;;;;;;;2.42;1.10;;;;;;;12.32;44.42;100263.90;1724236;83;21035;-74
2022/04/28 06:32:04;;;;;;;1.55;1.10;;;;;;;12.40;43.32;100268.03;1758823;81;21184;-74
2022/04/28 06:34:50;;;;;;;2.87;1.17;;;;;;;12.54;43.76;100270.27;1757531;81;21235;-75
2022/04/28 06:37:20;;;;;;;3.80;1.00;;;;;;;12.67;43.18;100276.48;1730653;82;21075;-74
2022/04/28 06:39:50;;;;;;;2.05;1.00;;;;;;;12.76;42.56;100270.47;1755790;81;21416;-74
2022/04/28 06:42:18;;;;;;;1.85;1.20;;;;;;;12.86;42.26;100273.69;1755834;81;21055;-75
2022/04/28 06:45:04;;;;;;;1.07;0.98;;;;;;;13.09;39.49;100274.70;1756525;81;21464;-75
2022/04/28 06:47:40;;;;;;;1.02;1.02;;;;;;;13.09;39.49;100274.70;1699053;81;21126;-75
2022/04/28 06:50:23;;;;;;;1.47;0.88;;;;;;;13.19;39.63;100278.77;1702510;84;25342;-74
2022/04/28 06:53:08;;;;;;;;;;;;;;;13.29;38.25;100281.51;1743091;81;21049;-74
2022/04/28 06:55:35;;;;;;;0.80;0.80;;;;;;;13.41;37.73;100283.38;1757732;81;20188;-74
2022/04/28 06:58:04;;;;;;;1.22;1.10;;;;;;;13.56;37.74;100288.98;1718398;82;21145;-74
2022/04/28 07:00:32;;;;;;;1.10;1.00;;;;;;;13.71;37.43;100286.27;1757079;81;21172;-75
2022/04/28 07:03:01;;;;;;;5.47;1.42;;;;;;;13.84;38.50;100289.82;1757264;81;21069;-75
2022/04/28 07:05:30;;;;;;;1.12;1.00;;;;;;;14.00;38.70;100281.70;1730893;82;21490;-74
2022/04/28 07:07:59;;;;;;;1.67;1.07;;;;;;;14.16;38.66;100287.78;1757468;81;21121;-75
2022/04/28 07:10:27;;;;;;;0.82;0.80;;;;;;;14.26;37.10;100295.31;1730236;82;21101;-74
2022/04/28 07:12:56;;;;;;;2.62;1.02;;;;;;;14.33;37.30;100289.33;1757728;81;21599;-74
2022/04/28 07:15:42;;;;;;;1.17;1.07;;;;;;;14.39;35.74;100283.81;1757569;81;21065;-73
2022/04/28 07:18:20;;;;;;;1.80;1.20;;;;;;;14.44;35.79;100288.47;1728169;82;21106;-75
2022/04/28 07:20:47;;;;;;;4.40;1.10;;;;;;;14.49;35.83;100286.50;1757500;81;21160;-74
2022/04/28 07:23:15;;;;;;;3.92;1.00;;;;;;;14.53;36.33;100290.36;1730877;82;21114;-75
2022/04/28 07:25:42;;;;;;;1.70;1.00;;;;;;;14.54;35.71;100294.28;1734087;81;21734;-74
2022/04/28 07:28:09;;;;;;;1.07;0.98;;;;;;;14.56;35.38;100298.16;1730611;82;21762;-75
2022/04/28 07:30:39;;;;;;;7.10;1.00;;;;;;;14.54;35.05;100294.28;1754129;81;21585;-75
2022/04/28 07:33:08;;;;;;;1.57;1.00;;;;;;;14.59;35.62;100295.44;1756843;81;21014;-74
2022/04/28 07:35:55;;;;;;;0.95;0.93;;;;;;;14.63;35.53;100299.70;1686125;85;21250;-74
2022/04/28 07:38:41;;;;;;;1.30;1.00;;;;;;;14.60;35.24;100295.38;1685948;85;21618;-75
2022/04/28 07:41:12;;;;;;;5.33;1.27;;;;;;;14.60;35.96;100295.85;1705646;82;21016;-75
2022/04/28 07:43:39;;;;;;;4.80;1.20;;;;;;;14.65;35.93;100299.18;1725468;83;21118;-74
2022/04/28 07:46:06;;;;;;;1.50;1.17;;;;;;;14.67;36.77;100302.63;1725631;83;20992;-75
2022/04/28 07:48:33;;;;;;;3.42;1.50;;;;;;;14.75;37.75;100307.17;1756968;81;20998;-74
2022/04/28 07:51:01;;;;;;;1.67;1.20;;;;;;;14.85;37.96;100300.58;1757192;81;21006;-74
2022/04/28 07:53:32;;;;;;;1.60;1.17;;;;;;;14.97;37.53;100301.02;1726793;83;21066;-75
2022/04/28 07:56:15;;;;;;;2.42;1.15;;;;;;;15.08;37.39;100305.44;1756878;81;21659;-74
2022/04/28 07:58:44;;;;;;;1.47;1.07;;;;;;;15.21;37.40;100302.68;1724790;82;21149;-75
2022/04/28 08:01:32;;;;;;;3.92;1.30;;;;;;;15.38;36.64;100305.07;1725399;82;21170;-74
2022/04/28 08:03:59;;;;;;;3.95;1.17;;;;;;;15.57;38.20;100307.36;1756853;81;21109;-75
2022/04/28 08:06:26;;;;;;;2.45;0.95;;;;;;;15.73;37.42;100301.39;1757109;81;21565;-74
2022/04/28 08:08:54;;;;;;;1.57;0.90;;;;;;;15.89;37.00;100294.99;1725629;83;21098;-74
2022/04/28 08:11:21;;;;;;;3.92;1.40;;;;;;;16.00;34.10;100301.14;1757059;81;20991;-75
2022/04/28 08:13:49;;;;;;;3.22;1.00;;;;;;;16.05;34.37;100296.48;1757270;81;21045;-74
2022/04/28 08:16:22;;;;;;;3.55;1.10;;;;;;;15.99;32.94;100291.00;1721980;82;21107;-74
2022/04/28 08:18:51;;;;;;;4.10;1.10;;;;;;;15.88;34.55;100295.44;1756830;81;21045;-75
2022/04/28 08:21:35;;;;;;;1.15;1.02;;;;;;;15.93;33.89;100301.40;1755949;81;21050;-74
2022/04/28 08:24:03;;;;;;;1.10;1.10;;;;;;;16.02;34.74;100300.59;1725838;83;21040;-74
2022/04/28 08:26:29;;;;;;;2.77;1.00;;;;;;;16.14;34.23;100300.06;1725673;82;21070;-74
2022/04/28 08:28:58;;;;;;;5.05;1.20;;;;;;;16.27;34.66;100302.56;1725619;82;21082;-74
2022/04/28 08:31:26;;;;;;;6.80;1.07;;;;;;;16.38;34.14;100297.22;1756715;81;21615;-75
2022/04/28 08:33:53;;;;;;;1.72;1.10;;;;;;;16.53;34.12;100299.16;1757251;81;21576;-74
2022/04/28 08:36:20;;;;;;;1.67;1.20;;;;;;;16.65;33.25;100293.26;1718457;82;21122;-74
2022/04/28 08:38:49;;;;;;;3.22;0.88;;;;;;;16.83;34.29;100302.64;1750873;81;21110;-74
2022/04/28 08:41:28;;;;;;;1.95;0.98;;;;;;;17.03;33.96;100299.90;1755958;81;21070;-75
2022/04/28 08:44:24;;;;;;;1.40;1.00;;;;;;;17.21;33.26;100305.23;1753626;81;21236;-75
2022/04/28 08:47:02;;;;;;;6.58;1.40;;;;;;;17.32;32.73;100298.92;1645971;87;21193;-74
2022/04/28 08:49:32;;;;;;;2.58;0.82;;;;;;;17.33;31.27;100302.44;1730753;82;21051;-74
2022/04/28 08:52:18;;;;;;;3.47;1.02;;;;;;;17.23;32.33;100304.69;1722590;83;21070;-75
2022/04/28 08:54:46;;;;;;;1.02;0.90;;;;;;;17.06;32.05;100299.75;1724732;83;21035;-74
2022/04/28 08:57:15;;;;;;;3.58;1.32;;;;;;;17.02;32.10;100303.95;1722715;83;21541;-74
2022/04/28 08:59:43;;;;;;;4.30;1.55;;;;;;;17.05;32.68;100300.67;1751088;81;20960;-74
2022/04/28 09:02:11;;;;;;;3.17;2.33;;;;;;;17.20;32.69;100304.86;1730516;82;21106;-75
2022/04/28 09:04:41;;;;;;;2.60;1.20;;;;;;;17.24;31.71;100307.27;1709712;82;21960;-74
2022/04/28 09:07:37;;;;;;;2.83;1.47;;;;;;;17.19;30.82;100303.12;1730497;82;21070;-74
2022/04/28 09:10:29;;;;;;;5.80;1.40;;;;;;;17.03;31.44;100298.56;1693117;82;21240;-74
2022/04/28 09:16:03;;;;;;;1.70;1.20;;;;;;;17.14;31.95;100295.84;1729364;82;21045;-74
2022/04/28 09:18:30;;;;;;;1.98;1.20;;;;;;;17.27;31.26;100294.30;1731044;82;21039;-74
2022/04/28 09:20:58;;;;;;;4.85;1.10;;;;;;;17.33;31.00;100290.02;1707844;82;21823;-74
2022/04/28 09:23:25;;;;;;;1.87;1.20;;;;;;;17.42;31.07;100292.20;1727714;81;21781;-74
2022/04/28 09:25:53;;;;;;;2.47;1.35;;;;;;;17.56;30.64;100297.28;1751245;81;21086;-74
2022/04/28 09:28:22;;;;;;;5.33;3.77;;;;;;;17.66;31.45;100293.69;1719526;83;21102;-73
2022/04/28 09:30:50;;;;;;;5.67;2.08;;;;;;;17.76;31.47;100294.45;1708534;82;21995;-73
2022/04/28 09:33:37;;;;;;;14.20;6.95;;;;;;;17.89;31.19;100289.87;1725968;81;21004;-74
2022/04/28 09:36:09;;;;;;;6.90;5.15;;;;;;;17.96;31.23;100288.11;1693049;84;21602;-75
2022/04/28 09:38:55;;;;;;;4.72;2.02;;;;;;;17.96;30.65;100285.94;1704291;84;21086;-74
2022/04/28 09:44:12;;;;;;;3.20;2.45;;;;;;;18.04;29.93;100284.17;1674641;85;21000;-74
2022/04/28 09:46:43;;;;;;;5.67;2.00;;;;;;;18.13;29.58;100277.89;1704176;84;21000;-73
2022/04/28 09:49:13;;;;;;;2.17;1.50;;;;;;;18.15;30.23;100281.80;1674582;85;21224;-74
2022/04/28 09:51:44;;;;;;;6.97;1.80;;;;;;;18.18;29.94;100283.83;1701156;84;21027;-73
2022/04/28 09:54:17;;;;;;;2.95;1.90;;;;;;;18.26;30.17;100278.09;1722929;83;21569;-74
2022/04/28 09:56:48;;;;;;;2.00;1.70;;;;;;;18.31;28.81;100277.85;1693232;84;21098;-74
2022/04/28 09:59:22;;;;;;;4.53;1.75;;;;;;;18.24;29.50;100273.78;1680190;84;21023;-74
2022/04/28 10:01:49;;;;;;;3.25;1.62;;;;;;;18.13;29.60;100274.37;1670497;84;21440;-74
2022/04/28 10:04:16;;;;;;;1.75;1.22;;;;;;;18.09;29.26;100271.02;1724096;83;21121;-74
2022/04/28 10:06:48;;;;;;;5.58;1.70;;;;;;;18.10;28.83;100267.87;1687470;84;21098;-74
2022/04/28 10:09:17;;;;;;;3.67;1.72;;;;;;;18.02;27.89;100268.27;1703278;84;21039;-73
2022/04/28 10:11:48;;;;;;;2.52;1.40;;;;;;;17.87;28.89;100263.33;1724860;83;21132;-74
2022/04/28 10:14:16;;;;;;;2.15;1.17;;;;;;;17.96;29.38;100267.30;1669316;84;22185;-74
2022/04/28 10:16:45;;;;;;;6.35;2.50;;;;;;;18.10;29.22;100264.73;1724390;83;21063;-73
2022/04/28 10:19:19;;;;;;;2.75;1.50;;;;;;;17.95;29.39;100264.23;1693563;84;21074;-74
2022/04/28 10:22:03;;;;;;;3.30;1.92;;;;;;;17.66;28.24;100261.27;1724510;83;21101;-74
2022/04/28 10:33:21;;;;;;;1.42;1.30;;;;;;;18.23;29.97;100253.44;1717517;83;21036;-75
2022/04/28 10:35:54;;;;;;;2.47;1.50;;;;;;;18.27;29.12;100261.16;1746662;82;21040;-74
2022/04/28 10:38:30;;;;;;;1.42;1.07;;;;;;;18.24;28.77;100256.02;1727218;83;21038;-74
2022/04/28 10:41:05;;;;;;;1.82;1.50;;;;;;;18.24;28.95;100256.47;1726437;82;21171;-74
2022/04/28 10:43:40;;;;;;;1.72;1.30;;;;;;;18.20;29.20;100260.63;1747078;82;21072;-75
2022/04/28 10:46:19;;;;;;;2.02;1.22;;;;;;;18.04;28.88;100258.88;1750103;82;21009;-74
2022/04/28 10:48:44;;;;;;;3.52;1.10;;;;;;;17.89;28.61;100265.91;1748216;81;21189;-75
2022/04/28 10:51:22;;;;;;;4.28;1.17;;;;;;;17.61;30.39;100257.99;1741371;82;22235;-73
2022/04/28 10:53:59;;;;;;;3.30;1.42;;;;;;;17.46;29.63;100264.48;1746290;82;22315;-74
2022/04/28 10:56:31;;;;;;;0.80;0.78;;;;;;;17.45;32.23;100264.59;1715104;83;21040;-73
2022/04/28 10:59:01;;;;;;;1.00;0.90;;;;;;;17.66;30.13;100253.77;1726355;83;22197;-74
2022/04/28 11:01:32;;;;;;;1.40;0.82;;;;;;;17.85;29.98;100249.66;1727093;83;21007;-75
2022/04/28 11:04:01;;;;;;;3.12;0.80;;;;;;;17.91;28.88;100241.39;1727210;83;21070;-75
2022/04/28 11:06:37;;;;;;;3.08;1.02;;;;;;;17.89;29.06;100247.27;1726847;83;21038;-75
2022/04/28 11:09:05;;;;;;;3.33;0.70;;;;;;;17.98;30.39;100242.77;1727174;83;21078;-74
2022/04/28 11:11:46;;;;;;;0.93;0.50;;;;;;;18.13;29.00;100237.94;1715017;83;21149;-74
2022/04/28 11:14:14;;;;;;;0.95;0.65;;;;;;;18.27;27.63;100236.33;1726685;83;21438;-74
2022/04/28 11:16:42;;;;;;;3.33;0.90;;;;;;;18.27;26.91;100238.51;1726699;83;21031;-75
2022/04/28 11:19:10;;;;;;;1.30;0.90;;;;;;;18.27;27.58;100227.00;1714870;83;21165;-74
2022/04/28 11:21:43;;;;;;;85.38;45.30;;;;;;;18.25;26.48;100235.56;1746239;82;21114;-75
2022/04/28 11:24:10;;;;;;;7.60;4.28;;;;;;;18.01;27.65;100236.80;1703869;83;21470;-74
2022/04/28 11:26:42;;;;;;;4.17;2.58;;;;;;;17.82;27.81;100238.23;1726896;83;21070;-74
2022/04/28 11:29:15;;;;;;;4.05;1.37;;;;;;;17.82;28.86;100227.59;1684631;83;21101;-75
2022/04/28 11:31:46;;;;;;;1.50;1.00;;;;;;;18.04;29.00;100222.48;1726702;83;21034;-74
2022/04/28 11:34:13;;;;;;;1.00;0.90;;;;;;;18.30;27.37;100222.84;1714960;83;21524;-74
2022/04/28 11:36:41;;;;;;;1.10;1.00;;;;;;;18.38;28.01;100219.28;1727013;83;21074;-74
2022/04/28 11:39:10;;;;;;;2.17;1.30;;;;;;;18.55;29.33;100198.34;1727153;83;21047;-75
2022/04/28 11:41:40;;;;;;;4.03;1.00;;;;;;;18.63;27.14;100215.25;1715000;83;21004;-74
2022/04/28 11:44:14;;;;;;;2.55;1.15;;;;;;;18.64;29.15;100210.28;1727030;83;21064;-74
2022/04/28 11:46:50;;;;;;;5.15;0.82;;;;;;;18.77;28.43;100207.30;1726906;83;21023;-74
2022/04/28 11:49:18;;;;;;;9.10;1.20;;;;;;;18.95;28.22;100202.75;1726691;83;21050;-75
2022/04/28 11:51:46;;;;;;;7.47;2.15;;;;;;;19.12;27.61;100201.75;1726798;83;21058;-75
2022/04/28 11:54:26;;;;;;;2.12;1.35;;;;;;;19.16;27.73;100201.09;1726787;83;21073;-74
2022/04/28 11:57:10;;;;;;;11.70;2.05;;;;;;;19.13;27.64;100204.78;1726689;83;21130;-75
2022/04/28 11:59:39;;;;;;;3.08;1.07;;;;;;;19.11;27.17;100194.69;1726862;83;21556;-74
2022/04/28 12:02:28;;;;;;;1.30;1.20;;;;;;;19.15;27.23;100191.36;1726784;83;21137;-75
2022/04/28 12:04:56;;;;;;;2.27;0.98;;;;;;;19.14;27.29;100198.52;1726700;83;21022;-75
2022/04/28 12:07:34;;;;;;;2.42;1.35;;;;;;;18.96;28.42;100186.27;1726578;83;21074;-74
2022/04/28 12:15:34;;;;;;;3.83;1.87;;;;;;;18.78;28.32;100185.03;1726681;83;21429;-74
2022/04/28 12:21:01;;;;;;;3.12;1.60;;;;;;;18.55;29.25;100194.34;1727168;83;21374;-74
2022/04/28 12:23:42;;;;;;;6.58;1.60;;;;;;;18.49;29.25;100196.90;1726854;83;21231;-75
2022/04/28 12:26:10;;;;;;;3.47;1.30;;;;;;;18.48;29.11;100199.16;1727030;83;21513;-75